Time;durP1;ratioP1;P1;durP2;ratioP2;P2;SDS_P1;SDS_P2;PMS_P1;PMS_P2;Temp;Humidity;BMP_temperature;BMP_pressure;BME280_temperature;BME280_humidity;BME280_pressure;Samples;Min_cycle;Max_cycle;Signal;HPM_P1;HPM_P2
2022/07/24 00:00:12;;;;;;;34.10;31.50;;;;;;;24.95;83.04;100843.22;5032513;28;20061;-82
2022/07/24 00:02:41;;;;;;;47.22;44.38;;;;;;;24.98;83.84;100848.84;5031055;28;20460;-83
2022/07/24 00:05:11;;;;;;;36.53;33.92;;;;;;;24.85;85.08;100842.31;5034242;28;20049;-82
2022/07/24 00:07:39;;;;;;;32.38;29.80;;;;;;;24.74;85.64;100843.56;5030137;28;20046;-83
2022/07/24 00:10:07;;;;;;;34.53;31.85;;;;;;;24.67;86.52;100841.25;5034254;28;20049;-83
2022/07/24 00:12:36;;;;;;;28.40;25.90;;;;;;;24.53;89.09;100834.16;5024255;28;20076;-85
2022/07/24 00:15:04;;;;;;;30.88;28.40;;;;;;;24.54;88.70;100833.03;5034296;28;20042;-82
2022/07/24 00:17:32;;;;;;;31.70;29.20;;;;;;;24.49;90.58;100825.00;5034134;28;20473;-83
2022/07/24 00:20:00;;;;;;;37.65;35.15;;;;;;;24.49;89.60;100827.72;5018166;28;20046;-82
2022/07/24 00:22:29;;;;;;;30.60;28.10;;;;;;;24.32;91.09;100826.31;5025055;28;20489;-83
2022/07/24 00:24:57;;;;;;;34.00;31.25;;;;;;;24.21;92.43;100822.16;5033666;28;20064;-83
2022/07/24 00:27:26;;;;;;;29.65;27.02;;;;;;;24.45;90.48;100817.47;5033723;28;20489;-84
2022/07/24 00:29:53;;;;;;;30.63;28.17;;;;;;;24.57;90.26;100825.13;5031988;28;20059;-84
2022/07/24 00:32:20;;;;;;;30.80;28.60;;;;;;;24.71;87.48;100819.72;5026082;28;20049;-85
2022/07/24 00:34:48;;;;;;;31.45;28.92;;;;;;;24.41;90.41;100818.31;5034071;28;20057;-82
2022/07/24 00:37:17;;;;;;;35.38;32.63;;;;;;;24.21;93.62;100820.25;5032330;28;20046;-84
2022/07/24 00:39:47;;;;;;;32.08;29.58;;;;;;;24.40;92.30;100812.06;5034246;28;20053;-84
2022/07/24 00:42:14;;;;;;;43.60;40.90;;;;;;;24.37;90.28;100804.53;5033835;28;20049;-84
2022/07/24 00:44:41;;;;;;;38.22;35.72;;;;;;;24.57;88.21;100806.13;5015632;28;20053;-84
2022/07/24 00:47:09;;;;;;;37.35;34.75;;;;;;;24.58;88.28;100812.38;5016574;28;20057;-83
2022/07/24 00:49:36;;;;;;;33.92;31.20;;;;;;;24.66;86.12;100803.50;5027987;28;20217;-82
2022/07/24 00:52:04;;;;;;;38.00;35.30;;;;;;;24.18;91.00;100803.75;5022811;28;20046;-82
2022/07/24 00:54:32;;;;;;;34.80;32.45;;;;;;;24.41;89.20;100802.81;5016326;28;20046;-83
2022/07/24 00:56:59;;;;;;;42.13;39.53;;;;;;;24.61;86.10;100793.56;5030931;28;20053;-83
2022/07/24 00:59:32;;;;;;;43.42;40.75;;;;;;;24.53;87.23;100788.00;5022758;28;20065;-82
2022/07/24 01:01:58;;;;;;;35.88;33.65;;;;;;;24.34;88.93;100782.59;5025416;28;20060;-82
2022/07/24 01:04:31;;;;;;;33.20;30.60;;;;;;;24.40;88.14;100789.56;5033234;28;20045;-84
2022/07/24 01:06:59;;;;;;;32.08;29.52;;;;;;;24.53;87.38;100785.28;5033241;28;20099;-84
2022/07/24 01:09:28;;;;;;;33.03;30.10;;;;;;;23.95;93.28;100778.31;5023338;28;20065;-82
2022/07/24 01:11:57;;;;;;;35.40;32.63;;;;;;;23.73;96.50;100793.25;5020001;28;20049;-83
2022/07/24 01:14:24;;;;;;;49.25;46.22;;;;;;;24.32;89.50;100776.66;5025763;28;20425;-83
2022/07/24 01:16:52;;;;;;;31.88;29.33;;;;;;;23.60;97.52;100775.00;5033060;28;20056;-82
2022/07/24 01:19:19;;;;;;;30.55;28.00;;;;;;;24.22;90.95;100772.19;5030309;28;20049;-83
2022/07/24 01:21:49;;;;;;;32.75;29.35;;;;;;;23.61;95.72;100773.06;5033643;28;20061;-83
2022/07/24 01:24:17;;;;;;;31.48;28.58;;;;;;;24.16;91.07;100768.75;5029498;28;20187;-85
2022/07/24 01:26:44;;;;;;;32.53;30.23;;;;;;;23.87;93.52;100765.41;5033307;28;20104;-83
2022/07/24 01:29:11;;;;;;;32.90;30.45;;;;;;;23.99;93.17;100768.47;5033305;28;20049;-85
2022/07/24 01:31:38;;;;;;;32.83;30.52;;;;;;;24.14;93.63;100768.25;5024063;28;20104;-83
2022/07/24 01:34:06;;;;;;;34.70;32.30;;;;;;;24.13;92.14;100765.84;5032226;28;20093;-84
2022/07/24 01:36:33;;;;;;;39.85;37.25;;;;;;;24.26;89.97;100758.84;5029000;28;20389;-84
2022/07/24 01:39:03;;;;;;;31.77;29.27;;;;;;;24.06;92.08;100758.06;5033664;28;20049;-83
2022/07/24 01:41:30;;;;;;;33.70;31.35;;;;;;;24.22;89.30;100755.91;5033039;28;20056;-84
2022/07/24 01:43:57;;;;;;;36.47;33.97;;;;;;;24.21;90.32;100760.56;5023874;28;20049;-82
2022/07/24 01:46:24;;;;;;;38.05;35.40;;;;;;;24.26;90.07;100765.06;5033347;28;20123;-83
2022/07/24 01:48:51;;;;;;;37.88;35.30;;;;;;;24.12;92.12;100756.91;5032925;28;20057;-83
2022/07/24 01:51:18;;;;;;;37.47;34.80;;;;;;;24.06;91.24;100758.06;5033090;28;20068;-85
2022/07/24 01:53:45;;;;;;;38.50;35.90;;;;;;;24.04;89.59;100746.72;5033311;28;20060;-83
2022/07/24 01:56:14;;;;;;;36.33;33.35;;;;;;;24.07;90.13;100753.44;5033049;28;20045;-83
2022/07/24 01:58:42;;;;;;;32.85;30.55;;;;;;;23.95;90.94;100749.28;5031442;28;20056;-82
2022/07/24 02:01:08;;;;;;;33.78;31.50;;;;;;;23.47;95.22;100751.28;5130510;22;20054;-83
2022/07/24 02:03:36;;;;;;;34.88;32.38;;;;;;;22.81;100.00;100760.97;5023285;28;20054;-82
2022/07/24 02:06:03;;;;;;;36.95;34.55;;;;;;;23.26;98.50;100750.75;5019496;28;20053;-85
2022/07/24 02:08:31;;;;;;;37.25;34.60;;;;;;;22.92;100.00;100756.28;5008794;28;20050;-84
2022/07/24 02:10:59;;;;;;;35.55;32.85;;;;;;;22.73;100.00;100761.63;5030866;28;20045;-82
2022/07/24 02:13:30;;;;;;;35.15;32.75;;;;;;;23.12;100.00;100757.94;5019502;28;20406;-83
2022/07/24 02:15:59;;;;;;;32.72;30.35;;;;;;;23.01;100.00;100762.69;5011010;28;22153;-83
2022/07/24 02:18:34;;;;;;;31.98;29.60;;;;;;;22.52;100.00;100761.81;5035293;28;20127;-84
2022/07/24 02:21:02;;;;;;;31.77;29.27;;;;;;;21.83;100.00;100768.25;4997412;28;20050;-83
2022/07/24 02:23:37;;;;;;;31.80;29.27;;;;;;;22.50;100.00;100758.56;5024189;28;20088;-83
2022/07/24 02:26:04;;;;;;;32.17;29.88;;;;;;;22.60;100.00;100758.47;5019758;28;20461;-82
2022/07/24 02:28:33;;;;;;;31.88;29.48;;;;;;;22.55;100.00;100755.81;5012980;28;20068;-84
2022/07/24 02:31:00;;;;;;;33.63;31.23;;;;;;;21.85;100.00;100756.06;5015449;28;20050;-83
2022/07/24 02:33:27;;;;;;;32.72;29.63;;;;;;;21.98;100.00;100756.53;5007461;28;20053;-82
2022/07/24 02:35:57;;;;;;;29.35;26.95;;;;;;;21.65;100.00;100750.78;5012159;28;20061;-83
2022/07/24 02:38:27;;;;;;;30.05;27.65;;;;;;;21.92;100.00;100753.84;5022925;28;20072;-84
2022/07/24 02:40:54;;;;;;;31.77;29.27;;;;;;;21.59;100.00;100747.28;5028245;28;20493;-84
2022/07/24 02:43:28;;;;;;;30.77;28.42;;;;;;;21.63;100.00;100748.34;5027929;28;20049;-83
2022/07/24 02:45:56;;;;;;;29.30;26.42;;;;;;;21.93;100.00;100751.94;5016118;28;20053;-84
2022/07/24 02:48:23;;;;;;;30.10;27.42;;;;;;;21.37;100.00;100755.78;5004580;28;20046;-84
2022/07/24 02:50:51;;;;;;;29.75;27.45;;;;;;;21.23;100.00;100754.72;5017881;28;20137;-84
2022/07/24 02:53:19;;;;;;;29.42;26.77;;;;;;;21.35;100.00;100746.31;5022200;28;20425;-84
2022/07/24 02:55:46;;;;;;;31.83;29.23;;;;;;;21.54;100.00;100751.91;5031938;28;20398;-84
2022/07/24 02:58:14;;;;;;;29.65;27.13;;;;;;;20.96;100.00;100758.56;5020695;28;20544;-83
2022/07/24 03:00:41;;;;;;;27.30;24.90;;;;;;;21.34;100.00;100752.81;5029620;28;20096;-82
2022/07/24 03:03:16;;;;;;;27.15;24.95;;;;;;;21.55;100.00;100746.25;4999480;28;20058;-82
2022/07/24 03:05:49;;;;;;;27.90;25.35;;;;;;;21.41;100.00;100747.91;5015854;28;20049;-85
2022/07/24 03:08:16;;;;;;;27.35;25.15;;;;;;;20.57;100.00;100761.06;5015862;28;20085;-83
2022/07/24 03:10:43;;;;;;;27.65;25.45;;;;;;;20.52;100.00;100756.50;5023976;28;20046;-82
2022/07/24 03:13:12;;;;;;;29.92;27.73;;;;;;;20.77;100.00;100752.16;5020412;28;20042;-83
2022/07/24 03:15:43;;;;;;;28.50;26.08;;;;;;;21.17;100.00;100751.22;5013775;28;20050;-82
2022/07/24 03:18:10;;;;;;;28.42;25.45;;;;;;;20.52;100.00;100761.09;5005145;28;20049;-85
2022/07/24 03:20:40;;;;;;;27.85;25.70;;;;;;;20.19;100.00;100765.91;5017027;28;20061;-84
2022/07/24 03:23:07;;;;;;;28.15;25.40;;;;;;;21.09;100.00;100759.09;5019543;28;20045;-84
2022/07/24 03:25:34;;;;;;;27.05;24.45;;;;;;;21.10;100.00;100760.72;5034625;28;20049;-84
2022/07/24 03:28:01;;;;;;;30.38;27.73;;;;;;;21.35;100.00;100757.09;5025478;28;20114;-83
2022/07/24 03:30:28;;;;;;;28.45;25.80;;;;;;;21.42;100.00;100761.16;5031114;28;20058;-84
2022/07/24 03:32:56;;;;;;;28.23;25.70;;;;;;;21.37;100.00;100765.78;5015616;28;20046;-85
2022/07/24 03:35:24;;;;;;;27.83;25.48;;;;;;;21.50;100.00;100759.75;5030781;28;20053;-84
2022/07/24 03:37:53;;;;;;;29.20;26.48;;;;;;;21.20;100.00;100769.56;5027252;28;20114;-85
2022/07/24 03:40:20;;;;;;;29.70;26.92;;;;;;;21.48;100.00;100762.75;5034336;28;20401;-84
2022/07/24 03:42:47;;;;;;;28.75;26.48;;;;;;;21.55;100.00;100761.66;5019511;28;20049;-84
2022/07/24 03:45:15;;;;;;;29.63;26.83;;;;;;;21.33;100.00;100765.50;5016115;28;20046;-84
2022/07/24 03:47:42;;;;;;;27.90;25.38;;;;;;;21.61;100.00;100755.13;5014873;28;20057;-84
2022/07/24 03:50:09;;;;;;;28.35;25.83;;;;;;;21.10;100.00;100766.91;5027028;28;20113;-83
2022/07/24 03:52:37;;;;;;;28.48;25.77;;;;;;;21.72;100.00;100756.66;5012686;28;20046;-84
2022/07/24 03:55:07;;;;;;;27.73;25.27;;;;;;;21.73;100.00;100764.50;5021660;28;20456;-83
2022/07/24 03:57:34;;;;;;;28.65;26.00;;;;;;;21.81;100.00;100759.59;5016521;28;20524;-84
2022/07/24 04:00:04;;;;;;;30.00;27.30;;;;;;;21.97;100.00;100758.44;5027580;28;20042;-84
2022/07/24 04:02:32;;;;;;;27.02;24.75;;;;;;;22.07;100.00;100757.53;5020872;28;20058;-83
2022/07/24 04:05:00;;;;;;;29.83;27.08;;;;;;;22.05;100.00;100759.72;5020765;28;20421;-82
2022/07/24 04:07:30;;;;;;;28.75;25.90;;;;;;;22.26;100.00;100763.91;5025264;28;20429;-84
2022/07/24 04:09:56;;;;;;;30.67;27.92;;;;;;;22.36;100.00;100760.31;5023964;28;20057;-82
2022/07/24 04:12:26;;;;;;;28.25;25.70;;;;;;;22.47;100.00;100764.53;5021605;28;20473;-82
2022/07/24 04:14:52;;;;;;;28.20;25.60;;;;;;;22.38;100.00;100763.53;5027315;28;20049;-83
2022/07/24 04:17:19;;;;;;;27.50;25.05;;;;;;;22.31;100.00;100752.25;5017720;28;20052;-83
2022/07/24 04:19:46;;;;;;;30.73;28.25;;;;;;;22.40;100.00;100753.25;5017479;28;20058;-82
2022/07/24 04:22:14;;;;;;;29.00;26.70;;;;;;;22.33;100.00;100759.00;5022667;28;20062;-82
2022/07/24 04:24:41;;;;;;;31.55;28.70;;;;;;;22.44;100.00;100756.19;4999814;28;20493;-84
2022/07/24 04:27:09;;;;;;;29.95;27.23;;;;;;;22.72;100.00;100754.56;5006261;28;20050;-82
2022/07/24 04:29:39;;;;;;;29.77;27.27;;;;;;;22.76;100.00;100752.91;5016105;28;20128;-81
2022/07/24 04:32:07;;;;;;;29.85;27.27;;;;;;;22.86;100.00;100742.78;5008885;28;20050;-81
2022/07/24 04:34:33;;;;;;;31.63;28.70;;;;;;;22.90;100.00;100755.72;5024822;28;20046;-82
2022/07/24 04:37:01;;;;;;;31.42;28.45;;;;;;;23.09;100.00;100754.75;5012007;28;20041;-82
2022/07/24 04:39:28;;;;;;;30.85;28.05;;;;;;;23.29;100.00;100756.38;5028362;28;20068;-83
2022/07/24 04:41:55;;;;;;;29.70;26.92;;;;;;;23.51;100.00;100769.41;5010542;28;20454;-81
2022/07/24 04:44:26;;;;;;;31.67;28.83;;;;;;;23.70;100.00;100753.19;5012939;28;20050;-84
2022/07/24 04:46:57;;;;;;;30.05;26.90;;;;;;;23.90;100.00;100756.69;5014197;28;20046;-84
2022/07/24 04:49:24;;;;;;;41.83;38.53;;;;;;;23.68;100.00;100757.25;5026613;28;20065;-83
2022/07/24 04:51:52;;;;;;;41.75;38.30;;;;;;;24.00;100.00;100760.06;5020962;28;20057;-82
2022/07/24 04:54:20;;;;;;;40.63;37.58;;;;;;;24.12;100.00;100764.22;5032127;28;20056;-84
2022/07/24 04:56:46;;;;;;;40.55;37.45;;;;;;;24.15;100.00;100769.88;5021458;28;20049;-82
2022/07/24 04:59:18;;;;;;;37.40;34.47;;;;;;;24.17;100.00;100775.00;5015873;28;20052;-82
2022/07/24 05:01:45;;;;;;;42.78;39.55;;;;;;;24.49;98.90;100773.44;5018033;28;20111;-84
2022/07/24 05:04:13;;;;;;;39.08;36.22;;;;;;;24.55;97.08;100773.03;5021749;28;20041;-85
2022/07/24 05:06:40;;;;;;;40.33;37.08;;;;;;;24.76;95.24;100775.41;5028596;28;20042;-83
2022/07/24 05:09:09;;;;;;;38.17;34.97;;;;;;;24.88;93.79;100771.06;5001300;28;20050;-83
2022/07/24 05:11:37;;;;;;;41.85;38.47;;;;;;;25.01;93.16;100766.75;4997791;28;20058;-81
2022/07/24 05:14:04;;;;;;;42.38;39.17;;;;;;;25.14;93.15;100759.72;5016145;28;20471;-83
2022/07/24 05:16:33;;;;;;;30.20;26.38;;;;;;;25.29;89.77;100756.69;5022608;28;20406;-82
2022/07/24 05:19:00;;;;;;;28.98;26.30;;;;;;;25.26;90.28;100753.78;5000739;28;20046;-83
2022/07/24 05:21:31;;;;;;;28.42;25.95;;;;;;;25.32;91.59;100745.22;5018129;28;20488;-85
2022/07/24 05:24:01;;;;;;;29.65;26.85;;;;;;;25.49;90.07;100744.59;5016839;28;20498;-84
2022/07/24 05:26:31;;;;;;;30.90;27.83;;;;;;;25.50;90.04;100745.41;5004039;28;20064;-86
2022/07/24 05:29:01;;;;;;;29.13;26.73;;;;;;;25.67;88.15;100740.13;5013420;28;20084;-84
2022/07/24 05:31:29;;;;;;;30.45;27.73;;;;;;;25.66;87.29;100746.69;5015861;28;20054;-84
2022/07/24 05:34:04;;;;;;;28.48;26.05;;;;;;;25.87;86.71;100738.06;5014642;28;20050;-86
2022/07/24 05:36:37;;;;;;;30.13;27.45;;;;;;;26.10;85.12;100741.59;5013405;28;20050;-85
2022/07/24 05:39:04;;;;;;;29.63;26.92;;;;;;;26.16;85.01;100743.09;5004762;28;20119;-84
2022/07/24 05:41:31;;;;;;;31.92;29.20;;;;;;;26.40;83.65;100738.13;5014625;28;20105;-82
2022/07/24 05:44:00;;;;;;;33.00;30.02;;;;;;;26.18;84.07;100736.22;5009854;28;20061;-87
2022/07/24 05:46:29;;;;;;;31.23;28.75;;;;;;;26.59;83.00;100735.19;5031118;28;20046;-83
2022/07/24 05:49:06;;;;;;;31.55;28.80;;;;;;;26.76;79.22;100741.84;5018656;28;20042;-83
2022/07/24 05:51:33;;;;;;;31.25;28.45;;;;;;;26.76;78.66;100737.22;5018648;28;20110;-85
2022/07/24 05:54:10;;;;;;;30.48;27.98;;;;;;;27.00;77.09;100744.19;5024024;28;20540;-84
2022/07/24 05:56:39;;;;;;;29.45;27.02;;;;;;;27.13;76.40;100746.78;5008314;28;20393;-84
2022/07/24 05:59:07;;;;;;;30.65;28.08;;;;;;;27.44;75.22;100737.72;5024206;28;20068;-82
2022/07/24 06:01:34;;;;;;;29.77;27.23;;;;;;;27.42;74.98;100731.00;5019837;28;20053;-83
2022/07/24 06:04:06;;;;;;;29.85;27.35;;;;;;;27.64;73.28;100728.94;5017145;28;20045;-85
2022/07/24 06:06:36;;;;;;;31.33;28.55;;;;;;;27.73;72.22;100731.66;5016788;28;20050;-84
2022/07/24 06:09:06;;;;;;;33.85;30.95;;;;;;;27.72;70.91;100734.72;5019776;28;20045;-83
2022/07/24 06:11:38;;;;;;;32.75;30.15;;;;;;;27.92;70.44;100734.09;5032233;28;20045;-82
2022/07/24 06:14:15;;;;;;;;;;;;;;;28.21;69.59;100724.44;5014601;28;20053;-81
2022/07/24 06:16:42;;;;;;;32.00;29.38;;;;;;;28.20;66.37;100726.34;5016620;28;19922;-83
2022/07/24 06:19:10;;;;;;;31.95;29.45;;;;;;;28.29;66.16;100718.94;5012979;28;20053;-82
2022/07/24 06:21:37;;;;;;;32.03;29.23;;;;;;;28.59;67.28;100729.94;5030584;28;20050;-83
2022/07/24 06:24:05;;;;;;;33.33;30.63;;;;;;;28.82;66.88;100716.84;5031496;28;20157;-82
2022/07/24 06:26:32;;;;;;;35.03;31.98;;;;;;;29.01;66.02;100705.47;5024710;28;20052;-83
2022/07/24 06:29:00;;;;;;;33.70;30.95;;;;;;;29.42;64.87;100701.22;5022941;28;20037;-82
2022/07/24 06:31:27;;;;;;;35.63;32.92;;;;;;;29.32;63.21;100694.22;5017079;28;20048;-83
2022/07/24 06:33:54;;;;;;;33.45;30.90;;;;;;;29.38;64.00;100697.53;5024873;28;20466;-81
2022/07/24 06:36:21;;;;;;;33.35;30.85;;;;;;;29.61;62.61;100693.38;5022274;28;20057;-81
2022/07/24 06:38:48;;;;;;;33.13;30.73;;;;;;;29.75;62.38;100689.56;5016515;28;20065;-82
2022/07/24 06:41:17;;;;;;;32.42;29.85;;;;;;;30.04;63.10;100683.16;5017366;28;20038;-85
2022/07/24 06:43:45;;;;;;;36.25;33.00;;;;;;;30.26;60.33;100685.53;5016134;28;20046;-83
2022/07/24 06:46:20;;;;;;;32.03;29.52;;;;;;;30.13;59.43;100681.91;5014376;28;20051;-84
2022/07/24 06:48:47;;;;;;;32.95;30.25;;;;;;;30.32;59.62;100686.09;5001163;28;20046;-82
2022/07/24 06:51:21;;;;;;;31.90;29.33;;;;;;;30.45;58.89;100684.19;5003970;28;20045;-82
2022/07/24 06:53:47;;;;;;;33.58;30.60;;;;;;;30.61;59.71;100671.38;5015056;28;20050;-82
2022/07/24 06:56:15;;;;;;;30.25;27.67;;;;;;;30.53;58.14;100664.91;5025180;28;20471;-82
2022/07/24 06:58:42;;;;;;;30.05;27.77;;;;;;;30.72;59.07;100671.75;5016992;28;20046;-82
2022/07/24 07:01:09;;;;;;;30.48;28.08;;;;;;;31.03;56.91;100669.22;5018860;28;20446;-82
2022/07/24 07:03:42;;;;;;;31.17;28.77;;;;;;;31.22;56.65;100671.34;5028098;28;20054;-83
2022/07/24 07:06:10;;;;;;;32.67;30.17;;;;;;;30.95;56.92;100670.13;5015350;28;20092;-82
2022/07/24 07:08:37;;;;;;;31.10;28.77;;;;;;;31.13;57.55;100670.66;5025481;28;20042;-81
2022/07/24 07:11:04;;;;;;;32.25;29.48;;;;;;;31.53;56.17;100660.88;5016429;28;20061;-82
2022/07/24 07:13:33;;;;;;;29.15;26.60;;;;;;;31.80;52.82;100665.56;5011642;28;20210;-82
2022/07/24 07:16:02;;;;;;;31.50;28.67;;;;;;;31.65;54.62;100658.88;5016970;28;20410;-82
2022/07/24 07:18:29;;;;;;;32.55;30.08;;;;;;;31.93;52.62;100652.59;5023398;28;20054;-82
2022/07/24 07:20:58;;;;;;;37.72;34.33;;;;;;;31.72;53.05;100650.03;5023904;28;20053;-83
2022/07/24 07:23:26;;;;;;;30.95;28.08;;;;;;;32.15;50.96;100646.50;5004474;28;20053;-82
2022/07/24 07:25:55;;;;;;;31.40;28.60;;;;;;;31.78;51.21;100650.59;5013213;28;20485;-81
2022/07/24 07:28:22;;;;;;;30.77;28.15;;;;;;;31.10;53.74;100643.94;5025804;28;20042;-83
2022/07/24 07:30:50;;;;;;;30.73;28.27;;;;;;;32.36;48.24;100643.47;5025211;28;20054;-82
2022/07/24 07:33:18;;;;;;;34.15;31.42;;;;;;;31.96;49.55;100643.66;5026849;28;20054;-82
2022/07/24 07:35:46;;;;;;;32.92;29.98;;;;;;;32.69;45.70;100652.53;5025398;28;20076;-83
2022/07/24 07:38:15;;;;;;;33.80;31.05;;;;;;;32.20;47.64;100644.66;5026374;28;20052;-81
2022/07/24 07:40:43;;;;;;;34.60;31.38;;;;;;;33.34;40.85;100644.53;5030620;28;20120;-82
2022/07/24 07:43:10;;;;;;;33.75;30.50;;;;;;;33.50;39.68;100637.03;5024564;28;20525;-84
2022/07/24 07:45:37;;;;;;;33.63;30.83;;;;;;;33.80;41.70;100633.66;5013895;28;20050;-83
2022/07/24 07:48:05;;;;;;;32.35;29.55;;;;;;;32.74;50.87;100639.31;5015477;28;20111;-82
2022/07/24 07:50:33;;;;;;;30.20;27.88;;;;;;;32.53;48.87;100642.34;5017546;28;20489;-82
2022/07/24 07:53:01;;;;;;;34.03;31.23;;;;;;;31.74;50.32;100639.50;5014405;28;20054;-83
2022/07/24 07:55:34;;;;;;;33.97;31.27;;;;;;;32.56;49.16;100643.59;5009041;28;20053;-83
2022/07/24 07:58:03;;;;;;;35.03;32.10;;;;;;;32.07;48.93;100635.66;5015087;28;20049;-84
2022/07/24 08:00:32;;;;;;;33.45;30.92;;;;;;;31.11;51.88;100637.31;4998476;28;20136;-81
2022/07/24 08:02:59;;;;;;;32.38;29.73;;;;;;;31.32;51.64;100633.59;5015340;28;20058;-80
2022/07/24 08:05:27;;;;;;;33.17;30.58;;;;;;;31.23;52.33;100633.75;5020835;28;20115;-84
2022/07/24 08:07:54;;;;;;;32.30;29.40;;;;;;;31.96;50.60;100634.63;5024821;28;20049;-84
2022/07/24 08:10:20;;;;;;;31.08;28.50;;;;;;;32.04;49.68;100625.41;5007477;28;20053;-83
2022/07/24 08:12:49;;;;;;;32.05;29.48;;;;;;;31.14;53.01;100625.66;5015062;28;20056;-82
2022/07/24 08:15:18;;;;;;;30.05;27.95;;;;;;;31.83;50.87;100620.94;5009794;28;20049;-84
2022/07/24 08:17:57;;;;;;;32.67;30.25;;;;;;;31.52;53.17;100624.41;5018204;28;20077;-82
2022/07/24 08:20:25;;;;;;;32.03;29.50;;;;;;;34.06;45.34;100619.19;5014547;28;20045;-83
2022/07/24 08:22:52;;;;;;;29.50;27.30;;;;;;;33.62;44.56;100618.75;5015965;28;20050;-83
2022/07/24 08:25:20;;;;;;;31.13;28.83;;;;;;;33.67;44.47;100615.69;4995362;28;20453;-84
2022/07/24 08:27:48;;;;;;;33.70;30.90;;;;;;;34.41;42.37;100621.72;5014317;28;20474;-84
2022/07/24 08:30:16;;;;;;;32.40;29.90;;;;;;;34.20;42.19;100615.88;5018665;28;20057;-82
2022/07/24 08:32:44;;;;;;;32.67;29.85;;;;;;;33.69;44.29;100613.38;5012574;28;20054;-84
2022/07/24 08:35:14;;;;;;;32.80;30.00;;;;;;;34.19;42.15;100611.50;5027382;28;20049;-82
2022/07/24 08:37:42;;;;;;;32.88;30.25;;;;;;;33.57;46.86;100619.06;5019189;28;20062;-82
2022/07/24 08:40:16;;;;;;;33.33;31.00;;;;;;;32.84;46.01;100625.00;5023429;28;20053;-82
2022/07/24 08:42:54;;;;;;;33.05;30.27;;;;;;;32.13;47.63;100626.81;5015609;28;20120;-81
2022/07/24 08:45:22;;;;;;;34.97;32.25;;;;;;;33.07;46.43;100635.31;5017793;28;20060;-81
2022/07/24 08:47:52;;;;;;;32.53;29.70;;;;;;;32.03;47.95;100629.31;5018499;28;20053;-81
2022/07/24 08:50:19;;;;;;;31.95;29.55;;;;;;;31.81;49.32;100622.44;5014388;28;20056;-82
2022/07/24 08:52:49;;;;;;;31.92;29.23;;;;;;;32.39;47.15;100631.78;5021455;28;20056;-83
2022/07/24 08:55:17;;;;;;;32.47;29.67;;;;;;;31.30;52.42;100636.69;5015164;28;20185;-81
2022/07/24 08:57:44;;;;;;;34.88;32.30;;;;;;;32.63;48.39;100626.47;5015483;28;20057;-82
2022/07/24 09:00:14;;;;;;;31.95;29.20;;;;;;;33.20;46.01;100627.75;5016319;28;20046;-80
2022/07/24 09:02:42;;;;;;;33.55;30.73;;;;;;;34.31;43.69;100619.56;4998886;28;20057;-81
2022/07/24 09:05:11;;;;;;;28.52;25.98;;;;;;;30.84;51.71;100625.16;5015946;28;20045;-82
2022/07/24 09:07:37;;;;;;;33.97;31.00;;;;;;;32.02;50.92;100628.50;5022352;28;20053;-81
2022/07/24 09:10:06;;;;;;;31.65;29.25;;;;;;;32.94;47.49;100629.13;5017373;28;20651;-81
2022/07/24 09:12:37;;;;;;;34.15;30.75;;;;;;;33.12;45.40;100639.75;5015161;28;20049;-82
2022/07/24 09:15:14;;;;;;;34.78;32.08;;;;;;;31.96;48.38;100629.94;5017187;28;20057;-83
2022/07/24 09:17:51;;;;;;;33.58;30.77;;;;;;;31.89;48.04;100633.28;5021969;28;20053;-84
2022/07/24 09:20:19;;;;;;;35.17;32.08;;;;;;;33.22;43.68;100639.16;5020145;28;20046;-80
2022/07/24 09:22:46;;;;;;;37.53;34.38;;;;;;;33.19;44.46;100637.94;5020559;28;20058;-81
2022/07/24 09:25:16;;;;;;;35.30;32.20;;;;;;;33.43;42.79;100631.34;5021009;28;20497;-82
2022/07/24 09:27:48;;;;;;;31.88;29.40;;;;;;;31.91;48.41;100622.72;5018064;28;20500;-82
2022/07/24 09:30:27;;;;;;;32.78;30.20;;;;;;;31.61;49.09;100616.81;5022460;28;20064;-82
2022/07/24 09:32:55;;;;;;;31.35;28.48;;;;;;;32.20;47.28;100625.44;5026237;28;20121;-80
2022/07/24 09:35:42;;;;;;;32.38;29.48;;;;;;;33.52;44.41;100618.19;5028602;28;20379;-82
2022/07/24 09:38:11;;;;;;;31.20;28.75;;;;;;;32.29;46.97;100617.78;5027450;28;20053;-80
2022/07/24 09:40:40;;;;;;;30.35;27.88;;;;;;;31.58;48.85;100617.50;5023067;28;20058;-82
2022/07/24 09:43:21;;;;;;;31.35;28.52;;;;;;;31.22;50.49;100604.72;5026469;28;20057;-81
2022/07/24 09:45:58;;;;;;;33.00;30.42;;;;;;;31.93;48.28;100611.41;5017189;28;20061;-84
2022/07/24 09:48:28;;;;;;;30.95;28.35;;;;;;;31.18;50.29;100606.56;5024207;28;20394;-83
2022/07/24 09:50:56;;;;;;;31.98;29.27;;;;;;;32.37;47.23;100603.06;5028219;28;20046;-80
2022/07/24 09:53:26;;;;;;;34.83;32.15;;;;;;;32.65;45.52;100608.47;5024334;28;20062;-82
2022/07/24 09:56:07;;;;;;;32.78;29.52;;;;;;;35.27;39.06;100606.38;5026081;28;20120;-82
2022/07/24 09:58:38;;;;;;;29.07;26.63;;;;;;;33.38;42.89;100603.34;5019770;28;20116;-80
2022/07/24 10:01:08;;;;;;;31.98;29.30;;;;;;;33.12;43.49;100603.97;5032367;28;20053;-82
2022/07/24 10:03:38;;;;;;;33.67;30.88;;;;;;;34.01;40.13;100591.91;5029690;28;20050;-82
2022/07/24 10:06:08;;;;;;;34.70;31.65;;;;;;;35.30;36.96;100591.03;5024279;28;20111;-81
2022/07/24 10:08:37;;;;;;;34.67;31.90;;;;;;;33.21;42.83;100599.06;5020886;28;20069;-81
2022/07/24 10:11:12;;;;;;;34.17;31.33;;;;;;;34.48;39.69;100590.69;5022574;28;20049;-81
2022/07/24 10:13:40;;;;;;;34.58;31.50;;;;;;;34.75;39.23;100590.72;5021695;28;20402;-82
2022/07/24 10:16:30;;;;;;;35.17;32.15;;;;;;;35.71;38.95;100588.34;5024855;28;20468;-81
2022/07/24 10:18:59;;;;;;;34.25;31.25;;;;;;;35.63;36.92;100581.94;5016259;28;20046;-81
2022/07/24 10:21:29;;;;;;;33.83;31.02;;;;;;;32.15;45.25;100588.81;5023645;28;20073;-82
2022/07/24 10:24:33;;;;;;;32.50;29.83;;;;;;;35.03;38.72;100579.25;5025637;28;20041;-81
2022/07/24 10:27:05;;;;;;;31.42;28.77;;;;;;;33.67;41.00;100579.91;5007559;28;20050;-80
2022/07/24 10:29:35;;;;;;;31.38;28.65;;;;;;;33.23;42.46;100574.75;5024164;28;20493;-82
2022/07/24 10:32:05;;;;;;;31.50;28.98;;;;;;;35.85;34.44;100568.31;5027636;28;20095;-82
2022/07/24 10:34:39;;;;;;;32.28;29.35;;;;;;;36.15;32.89;100566.22;5013088;28;20050;-81
2022/07/24 10:37:12;;;;;;;30.20;27.40;;;;;;;37.13;30.92;100566.38;5015395;28;20075;-81
2022/07/24 10:39:51;;;;;;;30.27;27.55;;;;;;;36.35;33.05;100566.75;5015404;28;20058;-83
2022/07/24 10:42:18;;;;;;;30.70;28.10;;;;;;;33.19;39.07;100577.41;5023001;28;20068;-82
2022/07/24 10:44:45;;;;;;;30.27;27.50;;;;;;;35.18;34.97;100563.69;5028861;28;20395;-82
2022/07/24 10:47:16;;;;;;;32.10;29.25;;;;;;;35.81;34.17;100561.97;5023764;28;20145;-82
2022/07/24 10:49:46;;;;;;;31.53;28.70;;;;;;;35.70;36.10;100559.91;5025164;28;20060;-81
2022/07/24 10:52:30;;;;;;;29.67;26.95;;;;;;;34.82;36.66;100555.72;5022985;28;20413;-81
2022/07/24 10:55:21;;;;;;;31.80;29.00;;;;;;;35.55;34.19;100556.22;5019208;28;20046;-83
2022/07/24 10:57:49;;;;;;;32.10;29.35;;;;;;;35.54;32.21;100553.84;5018585;28;20053;-82
2022/07/24 11:00:22;;;;;;;32.95;30.15;;;;;;;35.43;35.88;100567.50;5025943;28;20498;-81
2022/07/24 11:02:59;;;;;;;35.55;32.38;;;;;;;36.97;31.54;100548.50;5026779;28;20054;-81
2022/07/24 11:05:31;;;;;;;34.97;31.60;;;;;;;35.88;32.17;100550.97;5028834;28;20042;-82
2022/07/24 11:08:33;;;;;;;31.75;28.83;;;;;;;36.30;32.83;100553.28;5024802;28;20096;-82
2022/07/24 11:11:11;;;;;;;32.05;29.00;;;;;;;35.42;35.33;100554.09;5016625;28;20069;-80
2022/07/24 11:13:52;;;;;;;34.28;30.95;;;;;;;36.49;31.23;100545.88;5018805;28;20446;-81
2022/07/24 11:16:21;;;;;;;31.38;28.65;;;;;;;36.38;31.44;100546.63;5021676;28;20050;-83